Ana Sayfa
METAR-TAF:

METAR-TAF

Havaalanları :

Chumphon, Tayland

Enlem: 10-42-40N, Boylam: 099-21-42E, yükseklik: 5 m

Güncel hava durumu gözlemi

Rapor saat 05:00 UTC de 33 dakika önce yapıldı.
Rüzgar doğudan 7 kt, doğu/kuzeydoğu ve doğu/güneydoğu arasında değişken
Sıcaklık 31°C
Nem 66%
Basınç 1015 hPa
Görüş mesafesi 10 km veya daha fazla
2000 ft yükseklikte parçalı bulutlu

METAR: VTSE 220500Z 09007KT 060V120 9999 SCT020 31/24 Q1015 NOSIG

Saat: 12:33 (05:33 UTC)

Tahmin

Rapor saat 23:00 UTC de 6 saat ve 33 dakika önce yapıldı.
Ayın 22'si saat 00 UTC'den ayın 22'si saat 24 UTC'ye kadar geçerli Tahmin
Rüzgar doğu/güneydoğudan 8 kt
Görüş mesafesi: 8000 m
2000 ft yükseklikte az bulutlu

TAF: VTSE 212300Z 2200/2224 12008KT 8000 FEW020

4.000'den fazla havaalanı için hava durumu gözlemleri ve tahminleri (METAR ve TAF raporları).

Kullanılabilir istasyonlar harita üzerinde sarı ve kırmızı noktalarla gösterilir.

İstasyonun adını görmek için fareyi noktanın üzerinde gezdirin.

Sonrasında hava gözlem ve tahminlerini görmek için tıklayın.

Haritayı değiştirmek için: yaklaştırmak için siyah artı işaretli yeşil düğmeye ve uzaklaştırmak için de eksi işaretli düğmeye hızla tıklayın; bitişik haritalar için yeşil okları kullanın.


METAR-TAF: